Time;durP1;ratioP1;P1;durP2;ratioP2;P2;SDS_P1;SDS_P2;PMS_P1;PMS_P2;Temp;Humidity;BMP_temperature;BMP_pressure;BME280_temperature;BME280_humidity;BME280_pressure;Samples;Min_cycle;Max_cycle;Signal;HPM_P1;HPM_P2
2021/04/04 00:01:32;;;;;;;15.80;3.95;;;3.50;99.90;;;;;;4380811;32;20075;-59
2021/04/04 00:03:58;;;;;;;11.68;4.03;;;3.40;99.90;;;;;;4359283;32;20085;-59
2021/04/04 00:06:25;;;;;;;15.80;4.07;;;3.50;99.90;;;;;;4369191;32;20178;-60
2021/04/04 00:08:51;;;;;;;14.57;5.82;;;3.20;99.90;;;;;;4384091;32;20181;-59
2021/04/04 00:11:17;;;;;;;15.82;4.32;;;3.10;99.90;;;;;;4393227;32;20073;-58
2021/04/04 00:13:43;;;;;;;14.82;4.20;;;3.20;99.90;;;;;;4370629;32;20074;-61
2021/04/04 00:16:09;;;;;;;16.58;5.15;;;3.30;99.90;;;;;;4391315;32;20074;-61
2021/04/04 00:18:36;;;;;;;14.93;6.93;;;3.10;99.90;;;;;;4386307;32;20101;-59
2021/04/04 00:21:02;;;;;;;16.23;8.05;;;2.80;99.90;;;;;;4387008;32;20073;-59
2021/04/04 00:23:28;;;;;;;15.82;7.32;;;2.80;99.90;;;;;;4367747;32;20071;-58
2021/04/04 00:25:55;;;;;;;13.70;6.82;;;2.70;99.90;;;;;;4383176;32;20070;-59
2021/04/04 00:28:21;;;;;;;12.55;7.85;;;2.70;99.90;;;;;;4389917;32;20089;-61
2021/04/04 00:30:47;;;;;;;12.98;7.47;;;2.70;99.90;;;;;;4390178;32;20057;-60
2021/04/04 00:33:13;;;;;;;12.65;7.57;;;2.60;99.90;;;;;;4385738;32;20077;-59
2021/04/04 00:35:39;;;;;;;12.10;7.85;;;2.70;99.90;;;;;;4391382;32;20079;-58
2021/04/04 00:38:07;;;;;;;13.45;8.25;;;2.70;99.90;;;;;;4379740;32;20058;-59
2021/04/04 02:21:21;;;;;;;7.50;5.03;;;1.70;99.90;;;;;;4389260;32;20248;-61
2021/04/04 02:26:59;;;;;;;7.07;4.87;;;1.70;99.90;;;;;;4391589;32;20068;-59
2021/04/04 02:33:12;;;;;;;6.87;4.82;;;1.80;99.90;;;;;;4391836;32;20147;-59
2021/04/04 02:35:43;;;;;;;7.03;5.00;;;1.80;99.90;;;;;;4364950;32;20066;-58
2021/04/04 02:38:33;;;;;;;6.62;4.68;;;1.70;99.90;;;;;;4350943;32;20105;-59
2021/04/04 02:41:01;;;;;;;6.90;4.40;;;1.70;99.90;;;;;;4356995;32;20085;-58
2021/04/04 02:43:30;;;;;;;7.15;5.28;;;1.70;99.90;;;;;;4341524;32;20507;-61
2021/04/04 02:45:57;;;;;;;7.25;4.50;;;1.70;99.90;;;;;;4352254;32;20066;-59
2021/04/04 02:49:00;;;;;;;6.53;5.35;;;1.70;99.90;;;;;;4352305;32;20086;-59
2021/04/04 02:51:50;;;;;;;6.70;4.43;;;1.60;99.90;;;;;;4351995;32;20157;-59
2021/04/04 02:54:20;;;;;;;6.22;4.53;;;1.60;99.90;;;;;;4367264;32;20081;-59
2021/04/04 02:56:48;;;;;;;7.00;4.72;;;1.60;99.90;;;;;;4380194;32;20085;-59
2021/04/04 02:59:47;;;;;;;6.47;4.40;;;1.60;99.90;;;;;;4366984;32;20512;-60
2021/04/04 03:02:16;;;;;;;5.53;4.03;;;1.60;99.90;;;;;;4340026;32;20072;-58
2021/04/04 03:04:42;;;;;;;5.87;4.18;;;1.60;99.90;;;;;;4364687;32;20070;-59
2021/04/04 03:07:11;;;;;;;6.18;4.80;;;1.60;99.90;;;;;;4354781;32;20096;-59
2021/04/04 03:09:39;;;;;;;5.87;4.30;;;1.50;99.90;;;;;;4355098;32;20073;-60
2021/04/04 03:12:06;;;;;;;5.65;4.12;;;1.50;99.90;;;;;;4354861;32;20084;-58
2021/04/04 03:14:32;;;;;;;7.03;4.60;;;1.50;99.90;;;;;;4354534;32;20081;-58
2021/04/04 03:16:58;;;;;;;6.05;4.50;;;1.50;99.90;;;;;;4354499;32;20448;-59
2021/04/04 03:19:24;;;;;;;6.15;4.55;;;1.50;99.90;;;;;;4354565;32;20141;-58
2021/04/04 03:21:50;;;;;;;5.70;4.18;;;1.40;99.90;;;;;;4364448;32;20082;-58
2021/04/04 03:24:17;;;;;;;5.50;4.07;;;1.50;99.90;;;;;;4353985;32;20085;-59
2021/04/04 03:26:43;;;;;;;5.97;4.43;;;1.40;99.90;;;;;;4354325;32;20069;-59
2021/04/04 03:29:09;;;;;;;7.37;5.07;;;1.40;99.90;;;;;;4354223;32;20084;-60
2021/04/04 03:31:35;;;;;;;6.28;4.40;;;1.40;99.90;;;;;;4366643;32;20059;-59
2021/04/04 03:34:02;;;;;;;6.28;4.20;;;1.40;99.90;;;;;;4354351;32;20174;-60
2021/04/04 03:36:28;;;;;;;6.30;4.40;;;1.40;99.90;;;;;;4366617;32;20162;-60
2021/04/04 03:38:56;;;;;;;6.78;4.57;;;1.40;99.90;;;;;;4353975;32;20077;-59
2021/04/04 03:41:24;;;;;;;6.93;5.30;;;1.40;99.90;;;;;;4342334;32;20069;-59
2021/04/04 03:43:51;;;;;;;6.62;4.82;;;1.40;99.90;;;;;;4342280;32;20074;-60
2021/04/04 03:46:25;;;;;;;5.93;4.12;;;1.50;99.90;;;;;;4379161;32;20072;-59
2021/04/04 03:48:55;;;;;;;6.43;4.30;;;1.50;99.90;;;;;;4342485;32;20069;-59
2021/04/04 03:51:26;;;;;;;6.07;3.83;;;1.60;99.90;;;;;;4353454;32;20144;-61
2021/04/04 03:53:53;;;;;;;6.32;4.30;;;1.50;99.90;;;;;;4354455;32;20100;-60
2021/04/04 03:56:31;;;;;;;5.62;4.20;;;1.60;99.90;;;;;;4366464;32;20073;-59
2021/04/04 03:59:00;;;;;;;5.97;4.45;;;1.50;99.90;;;;;;4355041;32;20078;-59
2021/04/04 04:01:26;;;;;;;5.25;4.18;;;1.50;99.90;;;;;;4354184;32;20085;-60
2021/04/04 04:03:52;;;;;;;3.97;3.15;;;1.50;99.90;;;;;;4353948;32;20062;-60
2021/04/04 04:06:19;;;;;;;4.95;3.70;;;1.50;99.90;;;;;;4353808;32;20102;-60
2021/04/04 04:08:45;;;;;;;5.28;3.78;;;1.50;99.90;;;;;;4376156;32;20080;-58
2021/04/04 04:11:11;;;;;;;4.85;3.40;;;1.50;99.90;;;;;;4366330;32;20511;-59
2021/04/04 04:13:38;;;;;;;4.62;3.50;;;1.50;99.90;;;;;;4350487;32;20096;-59
2021/04/04 04:16:04;;;;;;;4.93;3.50;;;1.60;99.90;;;;;;4353657;32;20161;-59
2021/04/04 04:18:31;;;;;;;5.10;3.50;;;1.60;99.90;;;;;;4353700;32;20125;-58
2021/04/04 04:20:57;;;;;;;5.25;3.87;;;1.50;99.90;;;;;;4366142;32;20094;-58
2021/04/04 04:23:23;;;;;;;5.85;4.12;;;1.60;99.90;;;;;;4392077;32;20084;-60
2021/04/04 04:25:51;;;;;;;5.60;4.10;;;1.60;99.90;;;;;;4353238;32;20571;-60
2021/04/04 04:28:17;;;;;;;5.47;3.92;;;1.70;99.90;;;;;;4344849;32;20078;-58
2021/04/04 04:30:43;;;;;;;6.05;3.95;;;1.70;99.90;;;;;;4345976;32;20575;-58
2021/04/04 04:33:11;;;;;;;6.00;3.75;;;1.80;99.90;;;;;;4354534;32;20456;-58
2021/04/04 04:35:38;;;;;;;6.28;3.97;;;1.70;99.90;;;;;;4351015;32;20077;-58
2021/04/04 04:38:04;;;;;;;4.57;3.12;;;1.70;99.90;;;;;;4329398;32;20074;-59
2021/04/04 04:40:30;;;;;;;5.28;3.67;;;1.70;99.90;;;;;;4338645;32;20085;-60
2021/04/04 04:42:57;;;;;;;6.07;3.85;;;1.70;99.90;;;;;;4351081;32;20066;-59
2021/04/04 04:45:36;;;;;;;6.35;2.92;;;1.70;99.90;;;;;;4338477;32;20160;-59
2021/04/04 04:48:03;;;;;;;3.92;2.58;;;1.80;99.90;;;;;;4350608;32;20532;-58
2021/04/04 04:50:30;;;;;;;5.43;4.28;;;1.80;99.90;;;;;;4349907;32;20088;-59
2021/04/04 04:52:59;;;;;;;5.55;3.60;;;1.70;99.90;;;;;;4350226;32;20170;-59
2021/04/04 04:55:25;;;;;;;5.78;4.60;;;1.70;99.90;;;;;;4326377;32;20140;-60
2021/04/04 04:57:51;;;;;;;5.78;4.43;;;1.70;99.90;;;;;;4323937;32;20082;-59
2021/04/04 05:00:18;;;;;;;5.32;3.65;;;1.70;99.90;;;;;;4340953;32;20094;-59
2021/04/04 05:02:45;;;;;;;5.37;3.40;;;1.80;99.90;;;;;;4330261;32;20497;-59
2021/04/04 05:05:12;;;;;;;7.05;4.12;;;1.80;99.90;;;;;;4346471;32;20069;-59
2021/04/04 05:07:41;;;;;;;6.60;4.82;;;1.80;99.90;;;;;;4363696;32;20069;-58
2021/04/04 05:10:08;;;;;;;5.90;4.00;;;1.80;99.90;;;;;;4321428;32;20119;-59
2021/04/04 05:12:59;;;;;;;5.22;4.43;;;1.90;99.90;;;;;;4330681;32;20077;-59
2021/04/04 05:15:26;;;;;;;6.12;4.60;;;1.80;99.90;;;;;;4335967;32;20065;-61
2021/04/04 05:17:52;;;;;;;5.35;3.58;;;1.80;99.90;;;;;;4334945;32;20070;-58
2021/04/04 05:20:19;;;;;;;6.40;4.40;;;1.80;99.90;;;;;;4338258;32;20082;-58
2021/04/04 05:22:45;;;;;;;6.20;4.30;;;1.90;99.90;;;;;;4317178;32;20066;-59
2021/04/04 05:25:12;;;;;;;6.37;4.20;;;1.90;99.90;;;;;;4364844;32;20081;-60
2021/04/04 05:27:38;;;;;;;6.43;4.50;;;2.10;99.90;;;;;;4376800;32;20106;-59
2021/04/04 05:30:13;;;;;;;6.55;4.97;;;1.90;99.90;;;;;;4369559;32;20059;-58
2021/04/04 05:32:58;;;;;;;5.87;4.30;;;2.00;99.90;;;;;;4358482;32;20078;-60
2021/04/04 05:35:27;;;;;;;5.85;4.35;;;2.00;99.90;;;;;;4362785;32;20073;-59
2021/04/04 05:37:53;;;;;;;6.37;4.18;;;2.00;99.90;;;;;;4377977;32;20073;-60
2021/04/04 05:40:26;;;;;;;6.25;4.22;;;2.00;99.90;;;;;;4385393;32;20504;-60
2021/04/04 05:42:56;;;;;;;7.12;5.00;;;2.00;99.90;;;;;;4359370;32;20074;-58
2021/04/04 05:45:36;;;;;;;6.25;4.62;;;1.90;99.90;;;;;;4365490;32;20088;-59
2021/04/04 05:48:37;;;;;;;6.90;4.60;;;1.90;99.90;;;;;;4380301;32;20111;-59
2021/04/04 05:51:22;;;;;;;5.97;4.20;;;1.90;99.90;;;;;;4363988;32;20508;-60
2021/04/04 05:54:05;;;;;;;5.95;4.28;;;2.00;99.90;;;;;;4373395;32;20073;-59
2021/04/04 05:56:41;;;;;;;5.65;3.83;;;2.00;99.90;;;;;;4360171;32;20165;-60
2021/04/04 05:59:48;;;;;;;6.50;4.85;;;2.00;99.90;;;;;;4355215;32;20104;-60
2021/04/04 06:02:49;;;;;;;6.60;4.62;;;2.00;99.90;;;;;;4374885;32;20152;-59
2021/04/04 06:05:43;;;;;;;7.78;4.75;;;2.00;99.90;;;;;;4377720;32;20153;-58
2021/04/04 06:08:43;;;;;;;7.18;4.82;;;2.10;99.90;;;;;;4366875;32;20070;-60
2021/04/04 06:11:29;;;;;;;6.65;4.25;;;2.30;99.90;;;;;;4379864;32;20081;-58
2021/04/04 06:14:08;;;;;;;6.60;4.40;;;2.20;99.90;;;;;;4354115;32;20067;-59
2021/04/04 06:16:51;;;;;;;5.32;3.83;;;2.20;99.90;;;;;;4382405;32;20081;-58
2021/04/04 06:19:49;;;;;;;5.18;3.78;;;2.40;99.90;;;;;;4365152;32;20063;-59
2021/04/04 06:22:47;;;;;;;5.03;4.05;;;2.30;99.90;;;;;;4348387;32;20077;-59
2021/04/04 06:25:48;;;;;;;5.32;3.90;;;2.40;99.90;;;;;;4370425;32;20085;-60
2021/04/04 06:28:49;;;;;;;5.20;4.15;;;2.30;99.90;;;;;;4355358;32;20061;-59
2021/04/04 06:32:00;;;;;;;5.28;4.12;;;2.40;99.90;;;;;;4393786;32;20449;-58
2021/04/04 06:34:34;;;;;;;5.90;4.07;;;2.50;99.90;;;;;;4387963;32;20150;-59
2021/04/04 06:37:33;;;;;;;6.85;4.15;;;2.60;99.90;;;;;;4365016;32;20452;-58
2021/04/04 06:40:10;;;;;;;6.03;4.18;;;2.70;99.90;;;;;;4382514;32;20097;-59
2021/04/04 06:43:03;;;;;;;6.65;5.10;;;2.80;99.90;;;;;;4372589;32;20492;-60
2021/04/04 06:46:11;;;;;;;5.53;4.18;;;2.80;99.90;;;;;;4379467;32;20093;-58
2021/04/04 06:49:06;;;;;;;5.75;3.53;;;2.90;99.90;;;;;;4375265;32;20160;-60
2021/04/04 06:51:52;;;;;;;6.25;4.07;;;2.90;99.90;;;;;;4379197;32;20225;-59
2021/04/04 06:54:33;;;;;;;4.65;3.35;;;3.00;99.90;;;;;;4379883;32;20089;-59
2021/04/04 06:57:34;;;;;;;5.10;4.12;;;3.10;99.90;;;;;;4358784;32;20504;-59
2021/04/04 07:00:23;;;;;;;5.43;4.12;;;3.10;99.90;;;;;;4338575;32;20418;-60
2021/04/04 07:02:57;;;;;;;5.30;3.55;;;3.20;99.90;;;;;;4385728;32;20068;-58
2021/04/04 07:05:25;;;;;;;5.07;3.87;;;3.20;99.90;;;;;;4367281;32;20090;-60
2021/04/04 07:08:12;;;;;;;5.45;4.05;;;3.30;99.90;;;;;;4363904;32;20077;-58
2021/04/04 07:10:59;;;;;;;5.97;4.20;;;3.30;99.90;;;;;;4386436;32;20077;-59
2021/04/04 07:14:08;;;;;;;5.43;4.15;;;3.30;99.90;;;;;;4377773;32;20145;-60
2021/04/04 07:16:48;;;;;;;5.40;3.65;;;3.30;99.90;;;;;;4362820;32;20093;-59
2021/04/04 07:19:59;;;;;;;7.05;3.83;;;3.50;99.90;;;;;;4376444;32;20192;-58
2021/04/04 07:22:40;;;;;;;5.53;3.62;;;3.40;99.90;;;;;;4376553;32;20058;-58
2021/04/04 08:03:16;;;;;;;4.37;3.03;;;4.50;99.90;;;;;;4378015;32;20072;-58
2021/04/04 08:05:45;;;;;;;5.00;3.65;;;4.60;99.90;;;;;;4351602;32;20070;-58
2021/04/04 08:08:24;;;;;;;4.03;2.95;;;4.60;99.90;;;;;;4351494;32;20066;-60
2021/04/04 08:11:18;;;;;;;4.43;3.30;;;4.60;99.90;;;;;;4340002;32;20520;-58
2021/04/04 08:14:03;;;;;;;3.42;2.65;;;4.50;99.90;;;;;;4383491;32;20154;-59
2021/04/04 08:16:57;;;;;;;4.12;3.03;;;4.50;99.90;;;;;;4366855;32;20548;-58
2021/04/04 08:19:23;;;;;;;3.75;3.00;;;4.60;99.90;;;;;;4379484;32;20192;-60
2021/04/04 08:22:06;;;;;;;2.95;2.00;;;4.60;99.90;;;;;;4355377;32;20525;-58
2021/04/04 08:24:40;;;;;;;4.28;2.92;;;4.90;99.90;;;;;;4355132;32;20070;-59
2021/04/04 08:27:16;;;;;;;4.93;3.55;;;5.00;99.90;;;;;;4372598;32;20121;-59
2021/04/04 08:30:10;;;;;;;4.47;3.40;;;5.10;99.90;;;;;;4386950;32;20081;-59
2021/04/04 08:32:53;;;;;;;3.95;3.00;;;5.50;99.90;;;;;;4366779;32;20078;-59
2021/04/04 08:35:34;;;;;;;3.90;2.95;;;5.20;99.90;;;;;;4373340;32;20089;-59
2021/04/04 08:38:46;;;;;;;3.50;2.60;;;5.20;99.90;;;;;;4364132;32;20097;-59
2021/04/04 08:41:13;;;;;;;3.30;2.65;;;5.30;99.90;;;;;;4350270;32;20070;-58
2021/04/04 08:43:43;;;;;;;4.25;2.78;;;5.30;99.90;;;;;;4356601;32;20069;-58
2021/04/04 08:46:22;;;;;;;3.53;2.80;;;5.50;99.90;;;;;;4351106;32;20073;-59
2021/04/04 08:48:48;;;;;;;3.47;2.83;;;5.40;99.90;;;;;;4367199;32;20085;-59
2021/04/04 08:51:17;;;;;;;2.45;2.08;;;5.50;99.90;;;;;;4358269;32;20071;-59
2021/04/04 08:53:47;;;;;;;3.35;2.65;;;5.40;99.90;;;;;;4370248;32;20192;-60
2021/04/04 08:56:14;;;;;;;3.78;3.12;;;5.80;99.90;;;;;;4375632;32;20070;-60
2021/04/04 08:58:49;;;;;;;3.80;2.60;;;5.60;99.90;;;;;;4362680;32;20078;-59
2021/04/04 09:01:31;;;;;;;5.03;3.37;;;5.80;99.90;;;;;;4369838;32;20073;-58
2021/04/04 09:03:59;;;;;;;5.47;3.35;;;5.80;99.90;;;;;;4355146;32;20631;-60
2021/04/04 09:06:26;;;;;;;3.40;2.97;;;6.00;99.90;;;;;;4375086;32;20062;-60
2021/04/04 09:08:52;;;;;;;2.00;1.77;;;6.00;99.90;;;;;;4373498;32;20085;-59
2021/04/04 09:11:18;;;;;;;4.15;2.50;;;6.00;99.90;;;;;;4357720;32;20086;-58
2021/04/04 09:13:45;;;;;;;3.45;2.42;;;6.10;99.90;;;;;;4360952;32;20066;-59
2021/04/04 09:16:15;;;;;;;2.50;2.30;;;6.10;99.90;;;;;;4377385;32;20070;-60
2021/04/04 09:18:52;;;;;;;3.90;2.60;;;6.30;99.90;;;;;;4365820;32;20076;-58
2021/04/04 09:21:20;;;;;;;2.50;2.15;;;6.20;99.90;;;;;;4345811;32;20086;-59
2021/04/04 09:23:48;;;;;;;2.00;1.80;;;6.20;99.90;;;;;;4384673;32;20085;-59
2021/04/04 09:26:18;;;;;;;3.10;2.40;;;6.10;99.90;;;;;;4353002;32;20137;-60
2021/04/04 09:28:44;;;;;;;3.60;2.30;;;6.40;99.90;;;;;;4373987;32;20255;-58
2021/04/04 09:31:21;;;;;;;2.70;2.40;;;6.50;99.90;;;;;;4345312;32;20097;-60
2021/04/04 09:34:06;;;;;;;3.15;2.50;;;6.40;99.90;;;;;;4377468;32;20138;-59
2021/04/04 09:36:51;;;;;;;4.45;2.37;;;6.50;99.90;;;;;;4365138;32;20080;-59
2021/04/04 09:39:25;;;;;;;3.47;2.42;;;7.10;91.90;;;;;;4355076;32;20142;-59
2021/04/04 09:41:51;;;;;;;2.87;2.25;;;7.00;86.90;;;;;;4377554;32;20510;-59
2021/04/04 09:44:17;;;;;;;2.85;1.85;;;6.50;83.20;;;;;;4365107;32;20069;-59
2021/04/04 09:46:55;;;;;;;3.35;2.50;;;6.60;83.40;;;;;;4361092;32;20151;-58
2021/04/04 09:49:33;;;;;;;2.22;2.03;;;6.60;84.00;;;;;;4345227;32;20173;-60
2021/04/04 09:51:59;;;;;;;2.22;2.03;;;6.90;87.30;;;;;;4369613;32;20520;-59
2021/04/04 09:54:25;;;;;;;4.30;2.08;;;7.00;82.70;;;;;;4379013;32;20105;-59
2021/04/04 09:56:58;;;;;;;1.75;1.62;;;7.10;80.30;;;;;;4362842;32;20081;-59
2021/04/04 09:59:28;;;;;;;1.98;1.60;;;7.40;79.20;;;;;;4357401;32;20063;-59
2021/04/04 10:01:54;;;;;;;2.62;2.03;;;7.20;73.90;;;;;;4361205;32;20480;-59
2021/04/04 10:04:20;;;;;;;3.67;1.65;;;7.50;76.40;;;;;;4375514;32;20070;-58
2021/04/04 10:06:59;;;;;;;3.42;1.90;;;7.40;73.20;;;;;;4365921;32;20176;-58
2021/04/04 10:09:38;;;;;;;2.30;1.70;;;7.60;73.80;;;;;;4369578;32;20489;-58
2021/04/04 10:12:05;;;;;;;2.67;2.03;;;8.00;73.50;;;;;;4371966;32;20523;-58
2021/04/04 10:14:31;;;;;;;4.43;2.17;;;7.40;71.80;;;;;;4382244;32;20070;-59
2021/04/04 10:17:13;;;;;;;7.15;2.28;;;7.70;72.10;;;;;;4368481;32;20069;-58
2021/04/04 10:19:53;;;;;;;6.47;2.20;;;7.80;70.80;;;;;;4372660;32;20463;-58
2021/04/04 10:22:19;;;;;;;2.20;2.00;;;7.30;68.40;;;;;;4382170;32;20081;-58
2021/04/04 10:24:46;;;;;;;2.65;1.92;;;7.30;68.40;;;;;;4348183;32;20169;-60
2021/04/04 10:27:32;;;;;;;5.20;2.00;;;7.50;68.00;;;;;;4356110;32;20447;-59
2021/04/04 10:30:18;;;;;;;2.20;1.70;;;7.50;64.40;;;;;;4384501;32;20090;-60
2021/04/04 10:32:49;;;;;;;4.28;2.85;;;7.60;64.50;;;;;;4363708;32;20074;-58
2021/04/04 10:35:33;;;;;;;3.12;2.40;;;7.50;64.30;;;;;;4377424;32;20078;-60
2021/04/04 10:38:16;;;;;;;3.15;2.58;;;7.30;67.80;;;;;;4350268;32;20101;-58
2021/04/04 10:40:53;;;;;;;3.50;2.40;;;7.30;68.40;;;;;;4369091;32;20076;-58
2021/04/04 10:43:46;;;;;;;3.75;2.70;;;7.60;66.80;;;;;;4367926;32;20460;-59
2021/04/04 10:46:14;;;;;;;4.50;2.40;;;7.80;67.90;;;;;;4378452;32;20065;-60
2021/04/04 10:48:45;;;;;;;3.75;2.22;;;8.00;67.00;;;;;;4378541;32;20514;-59
2021/04/04 10:51:13;;;;;;;4.32;2.00;;;8.20;66.80;;;;;;4362120;32;20062;-59
2021/04/04 10:53:39;;;;;;;4.30;2.30;;;8.10;66.10;;;;;;4383433;32;20443;-59
2021/04/04 10:56:06;;;;;;;4.20;2.55;;;8.20;65.30;;;;;;4353138;32;20104;-59
2021/04/04 10:58:32;;;;;;;2.17;1.90;;;7.50;66.60;;;;;;4386469;32;20099;-59
2021/04/04 11:01:00;;;;;;;2.75;2.17;;;7.60;66.30;;;;;;4354716;32;20089;-59
2021/04/04 11:03:27;;;;;;;3.62;1.90;;;8.20;67.10;;;;;;4381221;32;20544;-59
2021/04/04 11:05:54;;;;;;;4.37;2.15;;;8.30;63.90;;;;;;4378283;32;20082;-57
2021/04/04 11:08:20;;;;;;;2.47;1.95;;;8.30;66.00;;;;;;4337772;32;20082;-58
2021/04/04 11:10:48;;;;;;;2.72;1.67;;;7.90;63.50;;;;;;4350976;32;20078;-58
2021/04/04 11:13:16;;;;;;;2.65;1.80;;;7.70;63.30;;;;;;4379657;32;20119;-59
2021/04/04 11:15:48;;;;;;;1.67;1.40;;;7.60;64.20;;;;;;4362154;32;20066;-59
2021/04/04 11:18:18;;;;;;;3.37;1.80;;;8.10;62.50;;;;;;4367627;32;20171;-59
2021/04/04 11:20:45;;;;;;;2.92;1.70;;;7.70;62.30;;;;;;4351805;32;20075;-59
2021/04/04 11:23:15;;;;;;;2.15;1.35;;;7.90;61.80;;;;;;4357172;32;20105;-59
2021/04/04 11:25:41;;;;;;;2.78;1.77;;;7.30;62.20;;;;;;4362150;32;20080;-58
2021/04/04 11:28:16;;;;;;;2.90;1.60;;;7.50;64.00;;;;;;4354356;32;20466;-58
2021/04/04 11:30:43;;;;;;;1.85;1.60;;;7.10;64.70;;;;;;4372274;32;20445;-59
2021/04/04 11:33:20;;;;;;;2.75;1.58;;;7.00;65.40;;;;;;4352180;32;20155;-58
2021/04/04 11:36:02;;;;;;;2.17;1.50;;;7.20;64.20;;;;;;4378869;32;20507;-60
2021/04/04 11:38:34;;;;;;;3.65;1.83;;;7.10;64.80;;;;;;4380416;32;20116;-59
2021/04/04 11:41:16;;;;;;;5.80;1.98;;;7.00;65.90;;;;;;4388495;32;20081;-58
2021/04/04 11:43:43;;;;;;;6.70;1.98;;;7.00;66.00;;;;;;4352199;32;20074;-59
2021/04/04 11:46:51;;;;;;;5.40;2.12;;;7.00;66.60;;;;;;4389209;32;20104;-59
2021/04/04 11:49:36;;;;;;;1.75;1.40;;;7.00;66.70;;;;;;4371497;32;20161;-59
2021/04/04 11:52:11;;;;;;;4.30;1.92;;;6.90;63.30;;;;;;4363771;32;20155;-58
2021/04/04 11:57:25;;;;;;;2.33;1.37;;;6.80;60.50;;;;;;4386185;32;20094;-59
2021/04/04 12:00:06;;;;;;;2.85;1.60;;;6.90;61.40;;;;;;4387046;32;20161;-57
2021/04/04 12:02:34;;;;;;;2.05;1.50;;;6.90;61.50;;;;;;4356038;32;20061;-59
2021/04/04 12:05:07;;;;;;;2.70;1.70;;;7.00;62.70;;;;;;4360871;32;20066;-59
2021/04/04 12:07:55;;;;;;;1.70;1.42;;;6.80;62.90;;;;;;4372130;32;20065;-58
2021/04/04 12:10:27;;;;;;;2.87;1.70;;;6.80;62.70;;;;;;4379055;32;20117;-60
2021/04/04 12:12:54;;;;;;;4.15;2.03;;;7.00;64.20;;;;;;4374661;32;20070;-60
2021/04/04 12:15:25;;;;;;;4.55;1.92;;;7.00;64.30;;;;;;4363983;32;20089;-59
2021/04/04 12:17:56;;;;;;;3.58;2.08;;;7.00;64.30;;;;;;4359712;32;20158;-59
2021/04/04 12:20:33;;;;;;;3.72;1.90;;;7.00;65.30;;;;;;4364061;32;20512;-58
2021/04/04 12:23:01;;;;;;;4.47;2.10;;;7.20;65.30;;;;;;4381873;32;20104;-59
2021/04/04 12:25:28;;;;;;;4.00;1.60;;;7.20;64.30;;;;;;4371513;32;20085;-59
2021/04/04 12:27:58;;;;;;;5.20;1.95;;;7.10;64.30;;;;;;4364107;32;20078;-58
2021/04/04 12:30:41;;;;;;;3.50;1.87;;;7.30;64.80;;;;;;4371903;32;20499;-59
2021/04/04 12:33:17;;;;;;;3.85;1.87;;;7.30;63.00;;;;;;4372642;32;20498;-58
2021/04/04 12:35:48;;;;;;;7.70;2.55;;;7.20;62.90;;;;;;4385568;32;20058;-58
2021/04/04 12:38:25;;;;;;;5.53;2.50;;;7.20;62.40;;;;;;4376624;32;20092;-58
2021/04/04 12:40:52;;;;;;;3.65;1.95;;;7.20;63.20;;;;;;4373875;32;20522;-58
2021/04/04 12:43:18;;;;;;;4.05;1.65;;;7.10;63.00;;;;;;4348036;32;20162;-60
2021/04/04 12:45:44;;;;;;;2.53;0.85;;;7.10;63.60;;;;;;4385617;32;20441;-59
2021/04/04 12:48:19;;;;;;;3.12;1.60;;;7.20;63.30;;;;;;4379443;32;20076;-60
2021/04/04 12:50:52;;;;;;;2.50;1.73;;;7.20;62.20;;;;;;4361638;32;20164;-59
2021/04/04 12:53:24;;;;;;;1.98;1.33;;;7.10;62.90;;;;;;4385115;32;20496;-58
2021/04/04 12:55:50;;;;;;;2.42;1.70;;;7.00;61.70;;;;;;4367164;32;20071;-58
2021/04/04 12:58:17;;;;;;;2.87;1.70;;;6.90;63.60;;;;;;4376199;32;20077;-59
2021/04/04 13:00:48;;;;;;;2.35;1.60;;;7.00;63.40;;;;;;4362191;32;20508;-58
2021/04/04 13:03:19;;;;;;;4.18;1.55;;;6.90;65.60;;;;;;4370808;32;20154;-58
2021/04/04 13:05:52;;;;;;;4.20;1.85;;;7.00;63.70;;;;;;4380178;32;20109;-59
2021/04/04 13:08:26;;;;;;;3.17;1.85;;;6.90;63.80;;;;;;4375050;32;20509;-59
2021/04/04 13:10:56;;;;;;;3.55;1.70;;;7.00;63.70;;;;;;4355888;32;20659;-59
2021/04/04 13:13:32;;;;;;;2.95;1.80;;;6.80;63.50;;;;;;4361467;32;20512;-58
2021/04/04 13:16:00;;;;;;;3.83;1.93;;;6.80;63.30;;;;;;4377992;32;20077;-59
2021/04/04 13:19:02;;;;;;;2.85;1.60;;;6.90;63.20;;;;;;4365379;32;20121;-59
2021/04/04 13:21:33;;;;;;;2.97;2.08;;;7.00;63.10;;;;;;4380794;32;20086;-60
2021/04/04 13:24:09;;;;;;;9.30;2.03;;;6.80;63.50;;;;;;4354870;32;20085;-58
2021/04/04 13:26:35;;;;;;;7.70;2.17;;;6.80;64.50;;;;;;4377896;32;20058;-59
2021/04/04 13:29:04;;;;;;;4.22;1.98;;;6.90;64.20;;;;;;4348166;32;20100;-59
2021/04/04 13:31:31;;;;;;;6.50;2.00;;;6.80;64.50;;;;;;4377954;32;20078;-59
2021/04/04 13:34:12;;;;;;;5.68;2.15;;;6.80;64.80;;;;;;4368735;32;20156;-59
2021/04/04 13:37:02;;;;;;;5.90;2.10;;;6.80;65.70;;;;;;4374143;32;20546;-58
2021/04/04 13:39:36;;;;;;;9.65;2.50;;;6.80;66.80;;;;;;4357110;32;20094;-59
2021/04/04 13:42:04;;;;;;;6.60;2.40;;;6.70;65.60;;;;;;4377458;32;20083;-58
2021/04/04 13:44:39;;;;;;;9.07;2.60;;;6.80;65.20;;;;;;4340116;32;20143;-59
2021/04/04 13:47:05;;;;;;;6.53;2.53;;;6.80;65.70;;;;;;4360891;32;20081;-57
2021/04/04 13:49:36;;;;;;;7.70;2.80;;;6.80;65.10;;;;;;4381764;32;20081;-59
2021/04/04 13:52:31;;;;;;;10.85;2.30;;;6.70;65.20;;;;;;4357105;32;20150;-59
2021/04/04 13:54:57;;;;;;;7.30;2.60;;;6.70;65.20;;;;;;4376476;32;20074;-58
2021/04/04 13:57:35;;;;;;;7.43;2.47;;;6.70;65.30;;;;;;4350103;32;20073;-59
2021/04/04 14:00:02;;;;;;;5.22;2.00;;;6.80;66.70;;;;;;4377381;32;20102;-59
2021/04/04 14:02:30;;;;;;;3.58;2.20;;;6.90;65.70;;;;;;4377923;32;20070;-59
2021/04/04 14:04:56;;;;;;;4.75;2.80;;;6.70;65.20;;;;;;4377182;32;20093;-60
2021/04/04 14:07:22;;;;;;;6.18;2.45;;;6.60;65.10;;;;;;4368347;32;20140;-60
2021/04/04 14:09:49;;;;;;;9.68;3.17;;;6.60;65.40;;;;;;4382285;32;20144;-58
2021/04/04 14:12:20;;;;;;;8.18;2.85;;;6.70;65.80;;;;;;4381269;32;20061;-59
2021/04/04 14:14:47;;;;;;;8.77;2.70;;;6.60;65.80;;;;;;4366082;32;20074;-59
2021/04/04 14:17:13;;;;;;;5.30;2.60;;;6.50;66.60;;;;;;4388966;32;20055;-59
2021/04/04 14:19:39;;;;;;;8.32;2.80;;;6.50;66.80;;;;;;4362186;32;20464;-59
2021/04/04 14:22:08;;;;;;;6.90;2.70;;;6.60;67.50;;;;;;4375269;32;20116;-58
2021/04/04 14:24:34;;;;;;;10.65;3.05;;;6.60;67.20;;;;;;4362178;32;20097;-58
2021/04/04 14:27:05;;;;;;;8.80;2.87;;;6.80;68.10;;;;;;4374326;32;20163;-59
2021/04/04 14:29:31;;;;;;;5.57;2.80;;;6.60;67.50;;;;;;4366220;32;20523;-59
2021/04/04 14:31:57;;;;;;;7.85;3.47;;;6.50;68.00;;;;;;4390004;32;20078;-58
2021/04/04 14:34:23;;;;;;;8.68;2.85;;;6.50;69.60;;;;;;4377384;32;20074;-59
2021/04/04 14:36:50;;;;;;;9.00;3.33;;;6.50;68.00;;;;;;4389662;32;20073;-58
2021/04/04 14:39:17;;;;;;;10.57;2.87;;;6.30;69.00;;;;;;4377107;32;20065;-59
2021/04/04 14:41:44;;;;;;;9.63;3.05;;;6.40;70.20;;;;;;4376749;32;20093;-59
2021/04/04 14:46:45;;;;;;;5.12;2.78;;;6.30;69.30;;;;;;4378065;32;20054;-59
2021/04/04 14:49:11;;;;;;;13.60;2.83;;;6.30;68.90;;;;;;4354958;32;20151;-58
2021/04/04 14:51:38;;;;;;;6.85;3.17;;;6.20;68.70;;;;;;4367651;32;20072;-58
2021/04/04 14:54:05;;;;;;;4.20;2.28;;;6.10;69.50;;;;;;4379755;32;20597;-59
2021/04/04 14:56:31;;;;;;;7.30;2.20;;;6.20;68.90;;;;;;4393152;32;20520;-58
2021/04/04 14:58:57;;;;;;;4.93;2.15;;;6.30;70.30;;;;;;4367846;32;20104;-59
2021/04/04 15:01:24;;;;;;;5.45;2.20;;;6.10;70.60;;;;;;4393277;32;20085;-57
2021/04/04 15:03:50;;;;;;;6.28;2.55;;;6.20;70.40;;;;;;4383463;32;20077;-59
2021/04/04 15:06:16;;;;;;;4.60;2.22;;;6.10;70.60;;;;;;4393782;32;20070;-58
2021/04/04 15:08:42;;;;;;;2.70;1.70;;;6.10;70.10;;;;;;4367497;32;20081;-59
2021/04/04 15:11:08;;;;;;;4.35;2.22;;;6.10;70.10;;;;;;4379660;32;20072;-59
2021/04/04 15:13:34;;;;;;;3.97;1.95;;;6.10;69.70;;;;;;4350794;32;20188;-58
2021/04/04 15:16:01;;;;;;;4.30;1.80;;;6.00;69.60;;;;;;4352147;32;20145;-58
2021/04/04 15:18:27;;;;;;;7.65;2.40;;;5.90;70.60;;;;;;4364743;32;20489;-58
2021/04/04 15:20:54;;;;;;;5.75;2.08;;;5.90;70.40;;;;;;4364603;32;20079;-59
2021/04/04 15:23:20;;;;;;;8.60;1.87;;;5.80;70.90;;;;;;4352321;32;20090;-59
2021/04/04 15:25:46;;;;;;;9.35;2.50;;;5.80;71.00;;;;;;4376643;32;20070;-59
2021/04/04 15:28:12;;;;;;;7.80;2.70;;;5.70;73.10;;;;;;4376775;32;20097;-59
2021/04/04 15:30:42;;;;;;;5.43;2.28;;;5.70;73.10;;;;;;4375266;32;20073;-59
2021/04/04 15:33:14;;;;;;;4.50;1.98;;;5.70;72.50;;;;;;4392061;32;20138;-58
2021/04/04 15:35:46;;;;;;;7.32;2.30;;;5.70;73.30;;;;;;4380067;32;20078;-58
2021/04/04 15:38:13;;;;;;;4.22;2.10;;;5.70;73.10;;;;;;4379555;32;20089;-58
2021/04/04 15:40:41;;;;;;;5.57;2.30;;;5.70;72.90;;;;;;4379971;32;20488;-57
2021/04/04 15:43:07;;;;;;;3.75;1.87;;;5.70;72.50;;;;;;4361457;32;20074;-58
2021/04/04 15:45:34;;;;;;;6.72;2.37;;;5.70;71.50;;;;;;4352189;32;20090;-58
2021/04/04 15:48:06;;;;;;;6.80;2.40;;;5.60;72.70;;;;;;4376810;32;20149;-60
2021/04/04 15:50:35;;;;;;;10.15;2.95;;;5.50;73.80;;;;;;4340017;32;20150;-58
2021/04/04 15:53:03;;;;;;;8.80;3.00;;;5.50;74.30;;;;;;4340421;32;20081;-59
2021/04/04 15:55:29;;;;;;;5.60;2.60;;;5.50;74.30;;;;;;4364653;32;20071;-59
2021/04/04 15:57:57;;;;;;;6.93;3.05;;;5.40;73.70;;;;;;4339249;32;20145;-58